Time;durP1;ratioP1;P1;durP2;ratioP2;P2;SDS_P1;SDS_P2;PMS_P1;PMS_P2;Temp;Humidity;BMP_temperature;BMP_pressure;BME280_temperature;BME280_humidity;BME280_pressure;Samples;Min_cycle;Max_cycle;Signal;HPM_P1;HPM_P2
2021/08/20 00:00:27;;;;;;;7.22;3.63;;;;;;;19.34;56.38;99442.72;5031309;28;20026;-52
2021/08/20 00:02:52;;;;;;;6.57;3.80;;;;;;;19.32;56.66;99451.06;5022454;28;20029;-53
2021/08/20 00:05:18;;;;;;;7.43;3.95;;;;;;;19.30;56.68;99442.28;5011659;28;20115;-59
2021/08/20 00:07:43;;;;;;;5.68;3.50;;;;;;;19.30;56.61;99442.28;5011721;28;20489;-53
2021/08/20 00:10:09;;;;;;;8.82;3.65;;;;;;;19.28;56.68;99443.50;5011470;28;20065;-51
2021/08/20 00:12:35;;;;;;;5.50;3.35;;;;;;;19.23;56.49;99441.34;5012138;28;20383;-54
2021/08/20 00:15:04;;;;;;;6.60;3.90;;;;;;;19.27;57.01;99458.09;5011398;28;20112;-52
2021/08/20 00:17:30;;;;;;;9.73;3.75;;;;;;;19.23;57.04;99449.47;5011711;28;20026;-53
2021/08/20 00:19:56;;;;;;;7.03;3.83;;;;;;;19.17;57.09;99453.81;5011128;28;20045;-52
2021/08/20 00:22:22;;;;;;;9.25;3.75;;;;;;;19.20;57.25;99463.44;5012949;28;20049;-49
2021/08/20 00:24:48;;;;;;;5.72;3.90;;;;;;;19.15;57.31;99455.03;5031086;28;20041;-49
2021/08/20 00:27:14;;;;;;;6.28;3.88;;;;;;;19.03;57.90;99435.66;5030693;28;20029;-52
2021/08/20 00:29:40;;;;;;;3.58;3.10;;;;;;;19.14;57.92;99456.88;5030721;28;20147;-52
2021/08/20 00:32:06;;;;;;;10.80;4.43;;;;;;;19.10;58.00;99460.19;5029213;28;20083;-52
2021/08/20 00:34:32;;;;;;;4.10;3.65;;;;;;;19.10;58.06;99462.91;5030627;28;20438;-47
2021/08/20 00:36:57;;;;;;;8.48;4.10;;;;;;;19.08;57.89;99472.06;5030705;28;20129;-49
2021/08/20 00:39:24;;;;;;;6.18;4.35;;;;;;;19.03;58.48;99479.91;5030589;28;20034;-50
2021/08/20 00:41:50;;;;;;;8.48;3.90;;;;;;;19.01;57.95;99473.00;5019662;28;20045;-51
2021/08/20 00:44:17;;;;;;;7.20;3.97;;;;;;;18.96;58.27;99484.38;5018677;28;20026;-51
2021/08/20 00:46:43;;;;;;;6.97;3.88;;;;;;;18.92;58.66;99470.31;5011131;28;20041;-55
2021/08/20 00:49:10;;;;;;;6.93;3.60;;;;;;;18.88;58.76;99481.75;5011515;28;20037;-51
2021/08/20 00:51:37;;;;;;;6.68;3.85;;;;;;;18.83;59.34;99485.03;5010823;28;20092;-52
2021/08/20 00:54:03;;;;;;;5.80;3.90;;;;;;;18.76;59.50;99478.66;5011784;28;20026;-53
2021/08/20 00:56:29;;;;;;;9.32;4.25;;;;;;;18.73;60.07;99484.47;5011907;28;20088;-51
2021/08/20 00:58:55;;;;;;;10.82;4.25;;;;;;;18.67;60.59;99480.63;5015092;28;20076;-52
2021/08/20 01:01:21;;;;;;;8.95;4.20;;;;;;;18.62;60.78;99483.06;5015206;28;20042;-50
2021/08/20 01:03:47;;;;;;;13.77;4.70;;;;;;;18.56;61.24;99483.78;5015701;28;20044;-51
2021/08/20 01:06:12;;;;;;;7.75;4.70;;;;;;;18.54;61.12;99480.41;5014822;28;20033;-54
2021/08/20 01:08:39;;;;;;;5.93;4.35;;;;;;;18.46;61.72;99479.47;5014795;28;20160;-52
2021/08/20 01:11:07;;;;;;;12.35;4.60;;;;;;;18.48;61.82;99485.53;5014455;28;20038;-51
2021/08/20 01:13:34;;;;;;;9.85;5.03;;;;;;;18.44;62.11;99502.34;5014404;28;20125;-53
2021/08/20 01:16:01;;;;;;;10.52;4.88;;;;;;;18.41;62.68;99492.72;5031188;28;20029;-54
2021/08/20 01:18:32;;;;;;;11.30;5.00;;;;;;;18.44;62.56;99486.09;5034514;28;20037;-54
2021/08/20 01:21:01;;;;;;;13.63;5.72;;;;;;;18.46;62.83;99506.56;5034069;28;20057;-54
2021/08/20 01:23:28;;;;;;;10.10;5.43;;;;;;;18.43;62.91;99498.81;5034171;28;20154;-52
2021/08/20 01:25:55;;;;;;;12.18;5.65;;;;;;;18.41;63.35;99491.88;5024179;28;20065;-55
2021/08/20 01:28:24;;;;;;;8.15;5.18;;;;;;;18.39;63.71;99499.34;5013522;28;20049;-51
2021/08/20 01:30:51;;;;;;;16.85;5.47;;;;;;;18.36;63.60;99501.41;5014521;28;20043;-52
2021/08/20 01:33:17;;;;;;;11.15;5.47;;;;;;;18.22;63.62;99478.66;5014047;28;20466;-49
2021/08/20 01:35:42;;;;;;;18.38;6.03;;;;;;;18.29;63.89;99496.88;5019090;28;20032;-54
2021/08/20 01:38:08;;;;;;;14.75;5.93;;;;;;;18.32;63.83;99504.66;5033815;28;20033;-53
2021/08/20 01:40:33;;;;;;;11.52;5.53;;;;;;;18.14;63.79;99478.75;5033776;28;20057;-55
2021/08/20 01:42:59;;;;;;;17.98;6.05;;;;;;;18.29;63.98;99515.84;5033371;28;20081;-50
2021/08/20 01:45:24;;;;;;;11.80;6.03;;;;;;;18.29;63.71;99505.03;5033877;28;20425;-59
2021/08/20 01:47:50;;;;;;;14.60;6.18;;;;;;;18.35;63.29;99507.03;5018961;28;20034;-53
2021/08/20 01:50:15;;;;;;;14.65;5.88;;;;;;;18.39;63.16;99505.63;5013529;28;20037;-48
2021/08/20 01:52:41;;;;;;;14.48;6.13;;;;;;;18.45;63.04;99509.47;5013890;28;20030;-50
2021/08/20 01:55:08;;;;;;;14.27;6.22;;;;;;;18.48;63.47;99517.25;5013549;28;20045;-57
2021/08/20 01:57:35;;;;;;;18.80;6.18;;;;;;;18.31;63.38;99484.00;5014560;28;20033;-47
2021/08/20 02:00:02;;;;;;;13.65;6.00;;;;;;;18.49;63.40;99514.34;5012055;28;20390;-50
2021/08/20 02:02:27;;;;;;;13.32;5.93;;;;;;;18.48;63.29;99519.94;5013430;28;20033;-48
2021/08/20 02:04:53;;;;;;;9.73;5.25;;;;;;;18.54;63.32;99535.47;5013542;28;20386;-51
2021/08/20 02:07:18;;;;;;;9.90;5.53;;;;;;;18.56;62.69;99532.56;5014425;28;20041;-50
2021/08/20 02:09:47;;;;;;;13.65;5.22;;;;;;;18.58;61.98;99520.53;5013642;28;20393;-53
2021/08/20 02:12:13;;;;;;;10.13;5.15;;;;;;;18.60;61.98;99526.59;5013504;28;20033;-50
2021/08/20 02:14:38;;;;;;;10.95;5.10;;;;;;;18.61;61.91;99514.72;5013351;28;20026;-54
2021/08/20 02:17:04;;;;;;;11.75;5.57;;;;;;;18.63;61.99;99515.38;5013252;28;20045;-54
2021/08/20 02:19:29;;;;;;;10.68;5.50;;;;;;;18.64;62.09;99513.53;5028206;28;20068;-51
2021/08/20 02:21:55;;;;;;;13.25;5.47;;;;;;;18.49;62.66;99489.94;5033272;28;20052;-53
2021/08/20 02:24:20;;;;;;;11.40;5.60;;;;;;;18.65;62.62;99510.63;5032936;28;20367;-52
2021/08/20 02:26:46;;;;;;;14.05;5.88;;;;;;;18.64;63.14;99516.25;5033117;28;20029;-53
2021/08/20 02:29:11;;;;;;;17.48;6.03;;;;;;;18.60;62.69;99514.94;5031062;28;20104;-51
2021/08/20 02:31:37;;;;;;;11.18;5.50;;;;;;;18.58;63.20;99508.84;5032461;28;20025;-54
2021/08/20 02:34:02;;;;;;;9.85;5.18;;;;;;;18.56;62.88;99522.59;5032780;28;20029;-56
2021/08/20 02:36:28;;;;;;;17.05;5.60;;;;;;;18.56;63.05;99516.31;5032922;28;20195;-55
2021/08/20 02:38:53;;;;;;;13.93;5.80;;;;;;;18.57;63.22;99518.00;5029700;28;20480;-52
2021/08/20 02:41:19;;;;;;;12.38;5.43;;;;;;;18.56;63.09;99511.75;5012685;28;20038;-55
2021/08/20 02:43:44;;;;;;;13.15;5.13;;;;;;;18.58;63.10;99511.56;5012800;28;20057;-49
2021/08/20 02:46:09;;;;;;;16.70;5.10;;;;;;;18.59;63.17;99514.06;5012819;28;20102;-51
2021/08/20 02:48:35;;;;;;;19.75;5.95;;;;;;;18.63;63.26;99509.97;5012654;28;20034;-53
2021/08/20 02:51:01;;;;;;;14.35;5.75;;;;;;;18.62;63.03;99499.31;5013692;28;20034;-52
2021/08/20 02:53:26;;;;;;;10.70;5.63;;;;;;;18.68;63.28;99514.00;5012074;28;20038;-54
2021/08/20 02:55:52;;;;;;;14.90;5.10;;;;;;;18.71;62.63;99514.47;5012284;28;20037;-52
2021/08/20 02:58:18;;;;;;;11.65;5.53;;;;;;;18.75;62.45;99510.34;5012437;28;20587;-50
2021/08/20 03:00:43;;;;;;;14.25;5.82;;;;;;;18.79;62.58;99511.66;5013411;28;20458;-54
2021/08/20 03:03:11;;;;;;;14.00;5.57;;;;;;;18.84;62.67;99513.81;5012872;28;20386;-53
2021/08/20 03:05:36;;;;;;;22.33;6.10;;;;;;;18.74;62.76;99497.81;5012306;28;20121;-52
2021/08/20 03:08:21;;;;;;;19.60;5.95;;;;;;;18.81;62.35;99487.09;5011363;28;20057;-54
2021/08/20 03:10:47;;;;;;;14.48;6.10;;;;;;;18.96;62.08;99507.97;5013276;28;20034;-59
2021/08/20 03:13:13;;;;;;;16.90;6.32;;;;;;;19.04;61.95;99525.00;5012786;28;20184;-52
2021/08/20 03:15:38;;;;;;;18.92;5.55;;;;;;;19.06;61.78;99520.25;5012494;28;20041;-50
2021/08/20 03:18:04;;;;;;;19.95;6.07;;;;;;;19.10;61.44;99528.00;5012327;28;20026;-52
2021/08/20 03:20:31;;;;;;;16.80;6.63;;;;;;;19.12;61.65;99528.66;5012166;28;20137;-55
2021/08/20 03:23:22;;;;;;;;;;;;;;;19.50;60.17;99525.81;5069034;28;20425;-54
2021/08/20 03:26:13;;;;;;;;;;;;;;;19.62;59.58;99528.88;5068511;28;20372;-54
2021/08/20 03:29:04;;;;;;;;;;;;;;;19.73;59.28;99538.41;5108950;27;20721;-50
2021/08/20 03:31:55;;;;;;;18.75;5.90;;;;;;;19.50;60.32;99525.81;5068212;28;20391;-48
2021/08/20 03:34:46;;;;;;;15.65;6.28;;;;;;;19.56;60.48;99524.22;5068511;28;20399;-50
2021/08/20 03:37:22;;;;;;;;;;;;;;;20.01;58.89;99529.53;5068638;28;20736;-51
2021/08/20 03:40:01;;;;;;;;;;;;;;;20.25;57.97;99522.03;5068558;28;20380;-51
2021/08/20 03:42:38;;;;;;;;;;;;;;;20.49;57.03;99527.06;5068271;28;20913;-53
2021/08/20 03:45:18;;;;;;;;;;;;;;;20.95;57.07;99533.09;5068480;28;20383;-51
2021/08/20 03:47:54;;;;;;;;;;;;;;;21.85;54.55;99535.03;5068667;28;20882;-51
2021/08/20 03:50:34;;;;;;;;;;;;;;;23.20;51.46;99533.16;5068609;28;20838;-50
2021/08/20 03:53:11;;;;;;;;;;;;;;;24.53;47.61;99526.41;5048428;28;20384;-52
2021/08/20 03:55:50;;;;;;;;;;;;;;;25.73;45.61;99518.03;5068659;27;20368;-51
2021/08/20 03:58:27;;;;;;;;;;;;;;;26.78;43.92;99525.06;5089447;28;20371;-55
2021/08/20 04:01:07;;;;;;;;;;;;;;;27.78;40.78;99524.25;5068576;28;20368;-51
2021/08/20 04:03:44;;;;;;;;;;;;;;;28.67;40.33;99534.88;5028238;28;20912;-51
2021/08/20 04:06:23;;;;;;;;;;;;;;;29.50;39.35;99526.72;5068945;28;20368;-54
2021/08/20 04:09:00;;;;;;;12.23;5.32;;;;;;;29.62;33.92;99523.00;5068887;27;20410;-55
2021/08/20 04:11:40;;;;;;;9.73;4.80;;;;;;;29.73;33.51;99519.25;5068262;28;20371;-50
2021/08/20 04:14:17;;;;;;;9.82;4.90;;;;;;;29.40;34.25;99525.72;5108669;27;20087;-53
2021/08/20 04:16:59;;;;;;;11.15;4.97;;;;;;;28.62;35.19;99524.59;5068629;28;20736;-54
2021/08/20 04:19:38;;;;;;;11.55;5.22;;;;;;;27.99;36.54;99530.94;5088454;28;20378;-54
2021/08/20 04:22:23;;;;;;;8.90;5.20;;;;;;;27.36;37.42;99519.78;5171049;27;20692;-54
2021/08/20 04:25:13;;;;;;;11.65;4.65;;;;;;;26.96;38.27;99517.81;5067827;28;20395;-50
2021/08/20 04:27:49;;;;;;;12.75;4.53;;;;;;;26.81;39.18;99532.84;5067900;28;20728;-53
2021/08/20 04:30:29;;;;;;;7.15;4.55;;;;;;;26.73;38.85;99536.75;5129338;27;20372;-53
2021/08/20 04:33:20;;;;;;;8.02;4.70;;;;;;;26.65;39.05;99528.88;5067897;28;20379;-53
2021/08/20 04:35:56;;;;;;;9.80;4.82;;;;;;;26.37;39.36;99501.03;5068027;27;20376;-55
2021/08/20 04:38:38;;;;;;;13.02;4.80;;;;;;;26.51;39.35;99523.63;5129480;27;20368;-52
2021/08/20 04:51:36;;;;;;;9.57;5.60;;;;;;;29.17;33.76;99525.72;5106260;27;1295032;-54
2021/08/20 04:54:17;;;;;;;10.10;4.95;;;;;;;31.45;29.82;99525.06;5067590;28;20395;-54
2021/08/20 04:56:59;;;;;;;9.95;4.45;;;;;;;33.28;26.39;99508.28;5068137;28;20371;-50
2021/08/20 04:59:52;;;;;;;9.70;4.63;;;;;;;33.87;25.71;99516.88;5089009;27;20374;-51
2021/08/20 05:02:42;;;;;;;7.00;4.68;;;;;;;33.32;26.25;99520.47;5085135;27;20410;-51
2021/08/20 05:05:35;;;;;;;8.32;4.53;;;;;;;33.47;25.92;99514.03;5148477;27;20978;-61
2021/08/20 05:08:37;;;;;;;5.28;3.95;;;;;;;33.34;26.31;99518.22;5130774;27;20390;-53
2021/08/20 05:11:30;;;;;;;11.30;4.57;;;;;;;33.42;26.46;99524.28;5089074;27;20402;-49
2021/08/20 05:14:20;;;;;;;8.15;4.68;;;;;;;33.83;25.90;99520.50;5087782;27;20389;-53
2021/08/20 05:17:12;;;;;;;10.80;4.43;;;;;;;35.21;23.37;99512.13;4511479;27;17937224;-57
2021/08/20 05:20:05;;;;;;;10.35;4.28;;;;;;;35.63;23.01;99529.16;5089054;27;20833;-53
2021/08/20 05:23:00;;;;;;;6.47;3.97;;;;;;;37.20;21.30;99519.94;5149340;27;20699;-52
2021/08/20 05:25:56;;;;;;;8.35;3.92;;;;;;;38.69;19.07;99519.59;5128634;27;21217;-54
2021/08/20 05:28:47;;;;;;;9.43;4.18;;;;;;;39.36;18.74;99519.75;5088512;27;20381;-54
2021/08/20 05:31:22;;;;;;;5.43;3.85;;;;;;;39.85;17.72;99506.53;5004914;28;20403;-53
2021/08/20 05:34:02;;;;;;;7.20;4.28;;;;;;;40.77;17.18;99531.84;5067703;28;20907;-51
2021/08/20 05:36:39;;;;;;;6.22;4.25;;;;;;;41.46;16.09;99520.63;5088300;27;20188;-51
2021/08/20 05:39:19;;;;;;;7.20;4.47;;;;;;;41.53;15.65;99529.34;5068186;28;20376;-53
2021/08/20 05:41:55;;;;;;;7.47;4.50;;;;;;;42.12;15.36;99524.81;5068337;27;20137;-52
2021/08/20 05:44:35;;;;;;;5.93;4.82;;;;;;;42.75;14.53;99521.03;5127914;27;20376;-54
2021/08/20 05:47:12;;;;;;;6.22;4.28;;;;;;;43.37;13.70;99523.09;5134490;27;20146;-53
2021/08/20 05:49:51;;;;;;;5.78;4.32;;;;;;;43.22;14.19;99524.63;5067910;28;20378;-52
2021/08/20 05:52:31;;;;;;;8.35;4.43;;;;;;;43.07;13.30;99526.16;5170657;27;20157;-51
2021/08/20 05:55:10;;;;;;;6.25;4.20;;;;;;;43.03;13.45;99528.84;5066601;28;20832;-61
2021/08/20 05:57:46;;;;;;;7.68;4.18;;;;;;;43.07;13.74;99503.63;5045911;28;20396;-53
2021/08/20 06:00:23;;;;;;;4.18;3.80;;;;;;;42.77;14.04;99523.47;5066394;28;20385;-54
2021/08/20 06:03:03;;;;;;;5.90;3.78;;;;;;;43.02;12.95;99515.09;5105378;27;1292656;-52
2021/08/20 06:05:40;;;;;;;6.57;3.97;;;;;;;43.19;12.71;99528.13;5170503;27;20126;-52
2021/08/20 06:08:21;;;;;;;5.30;3.92;;;;;;;43.64;12.71;99534.78;5067853;28;20398;-57
2021/08/20 06:10:57;;;;;;;4.13;3.72;;;;;;;44.17;12.08;99528.34;5067969;28;20897;-58
2021/08/20 06:13:34;;;;;;;6.57;3.85;;;;;;;43.73;12.17;99529.06;5048262;28;20373;-52
2021/08/20 06:16:25;;;;;;;4.40;4.00;;;;;;;43.09;12.92;99534.22;5067657;28;20407;-55
2021/08/20 06:19:02;;;;;;;5.28;3.40;;;;;;;43.06;12.84;99532.13;5068568;28;20391;-49
2021/08/20 06:21:44;;;;;;;6.05;3.67;;;;;;;43.14;12.58;99505.81;5108699;27;20864;-54
2021/08/20 06:24:20;;;;;;;4.38;3.53;;;;;;;43.48;12.15;99528.25;5068350;28;20374;-51
2021/08/20 06:26:57;;;;;;;7.47;3.60;;;;;;;43.81;11.86;99530.91;5067904;28;20380;-53
2021/08/20 06:29:39;;;;;;;4.18;3.78;;;;;;;43.77;11.65;99524.34;5067733;28;20388;-57
2021/08/20 06:32:15;;;;;;;3.60;3.30;;;;;;;44.23;10.61;99521.25;5068246;28;20885;-53
2021/08/20 06:34:41;;;;;;;7.72;3.92;;;;;;;44.80;10.27;99528.81;5068462;28;20040;-60
2021/08/20 06:37:17;;;;;;;5.20;3.65;;;;;;;44.97;10.90;99527.66;5067915;28;20387;-49
2021/08/20 06:40:03;;;;;;;5.43;3.78;;;;;;;45.51;10.15;99528.97;5068305;28;20372;-53
2021/08/20 06:42:40;;;;;;;5.72;3.78;;;;;;;46.24;9.66;99519.22;5171173;27;20126;-54
2021/08/20 06:45:16;;;;;;;7.50;3.55;;;;;;;46.91;9.12;99523.72;5071264;28;20741;-54
2021/08/20 06:47:57;;;;;;;5.85;3.88;;;;;;;47.26;9.06;99516.16;5065355;28;20388;-51
2021/08/20 06:50:33;;;;;;;7.43;4.03;;;;;;;46.99;8.84;99507.66;5062448;28;20396;-55
2021/08/20 06:53:17;;;;;;;5.68;3.70;;;;;;;47.31;8.85;99518.69;5067048;28;20376;-54
2021/08/20 06:55:55;;;;;;;5.18;3.70;;;;;;;43.83;11.22;99508.00;5159881;27;20383;-52
2021/08/20 06:58:34;;;;;;;4.03;3.63;;;;;;;47.16;8.93;99511.97;5124625;27;20380;-53
2021/08/20 07:01:10;;;;;;;4.05;3.40;;;;;;;48.04;8.02;99502.69;5067025;28;20126;-55
2021/08/20 07:03:50;;;;;;;3.83;3.42;;;;;;;48.57;7.89;99510.16;5107672;27;20368;-55
2021/08/20 07:06:27;;;;;;;5.45;3.60;;;;;;;48.85;7.47;99503.94;5066698;28;20126;-58
2021/08/20 07:09:06;;;;;;;4.28;3.47;;;;;;;48.25;8.30;99502.13;5118943;27;20918;-55
2021/08/20 07:11:43;;;;;;;5.65;3.80;;;;;;;47.94;8.23;99496.47;5107581;27;20476;-53
2021/08/20 07:14:23;;;;;;;3.53;3.22;;;;;;;48.33;8.16;99498.13;5058012;28;20831;-54
2021/08/20 07:17:00;;;;;;;4.03;3.58;;;;;;;48.75;7.80;99498.94;5086489;27;20118;-55
2021/08/20 07:19:44;;;;;;;4.97;3.63;;;;;;;49.32;7.26;99502.66;5087295;27;20378;-52
2021/08/20 07:22:21;;;;;;;5.30;3.67;;;;;;;49.45;7.24;99503.97;5067801;27;20380;-55
2021/08/20 07:25:01;;;;;;;5.65;3.85;;;;;;;49.67;6.87;99492.69;5068029;28;20376;-53
2021/08/20 07:27:37;;;;;;;4.55;4.10;;;;;;;49.41;7.28;99497.41;5067914;28;20150;-56
2021/08/20 07:30:17;;;;;;;4.50;4.05;;;;;;;48.96;7.54;99494.66;5067297;28;20895;-52
2021/08/20 07:32:54;;;;;;;4.22;3.80;;;;;;;49.09;7.32;99495.16;5067940;28;20459;-56
2021/08/20 07:35:33;;;;;;;7.03;4.53;;;;;;;49.40;7.31;99501.47;5068116;28;20383;-60
2021/08/20 07:38:10;;;;;;;4.65;4.20;;;;;;;49.60;6.72;99487.81;5066204;28;20123;-55
2021/08/20 07:40:56;;;;;;;5.82;3.97;;;;;;;49.62;7.03;99473.16;5067491;28;20372;-55
2021/08/20 07:43:34;;;;;;;5.47;3.63;;;;;;;49.80;7.12;99496.81;5125267;27;20352;-55
2021/08/20 07:46:09;;;;;;;5.18;3.53;;;;;;;49.61;6.97;99477.22;5068328;28;20705;-54
2021/08/20 07:48:54;;;;;;;4.68;4.00;;;;;;;49.84;6.74;99496.84;5129067;27;20376;-60
2021/08/20 07:51:31;;;;;;;6.13;3.85;;;;;;;50.04;6.68;99487.97;5068369;28;20376;-54
2021/08/20 07:54:08;;;;;;;7.72;3.75;;;;;;;49.85;6.88;99487.09;5170732;27;20118;-57
2021/08/20 07:56:43;;;;;;;6.05;3.42;;;;;;;48.81;7.43;99488.06;5107638;27;1307073;-55
2021/08/20 07:59:29;;;;;;;3.90;3.60;;;;;;;47.79;7.75;99472.78;5081847;27;1992634;-52
2021/08/20 08:02:06;;;;;;;4.28;3.88;;;;;;;47.33;8.37;99470.16;5068232;28;20375;-56
2021/08/20 08:04:54;;;;;;;6.32;3.70;;;;;;;46.62;8.50;99466.56;5108447;27;20379;-55
2021/08/20 08:07:49;;;;;;;5.88;3.35;;;;;;;46.21;8.56;99466.22;5067913;27;20386;-53
2021/08/20 08:10:46;;;;;;;6.13;3.55;;;;;;;43.68;10.86;99470.09;5129654;27;20344;-59
2021/08/20 08:13:43;;;;;;;6.45;3.88;;;;;;;40.66;13.11;99475.22;5089495;27;20388;-60
2021/08/20 08:16:36;;;;;;;7.40;3.85;;;;;;;38.76;14.73;99472.44;5129221;27;20336;-57
2021/08/20 08:19:42;;;;;;;4.90;3.55;;;;;;;36.82;16.13;99461.50;5147819;27;20415;-52
2021/08/20 08:22:50;;;;;;;9.13;3.72;;;;;;;35.22;18.51;99468.44;5147610;27;20847;-57
2021/08/20 08:25:27;;;;;;;5.38;3.58;;;;;;;34.35;18.78;99470.97;4623475;27;15052423;-54
2021/08/20 08:28:22;;;;;;;7.18;3.50;;;;;;;32.91;20.27;99477.03;5089788;27;20458;-56
2021/08/20 08:31:17;;;;;;;4.85;2.95;;;;;;;32.46;21.35;99482.38;5060527;28;20837;-52
2021/08/20 08:34:11;;;;;;;5.45;3.22;;;;;;;32.19;21.77;99472.38;5175040;27;20411;-53
2021/08/20 08:37:02;;;;;;;3.70;2.67;;;;;;;32.05;21.42;99472.09;5088587;27;20386;-58
2021/08/20 08:39:57;;;;;;;3.95;2.95;;;;;;;31.60;22.60;99471.72;5148394;27;20187;-53
2021/08/20 08:42:47;;;;;;;4.45;3.00;;;;;;;31.04;22.54;99477.84;5088981;27;20876;-56
2021/08/20 08:45:23;;;;;;;3.97;3.10;;;;;;;30.40;24.00;99477.69;4604361;27;15744466;-57
2021/08/20 08:48:16;;;;;;;4.30;3.00;;;;;;;30.11;24.34;99475.22;5108986;27;20924;-52
2021/08/20 08:50:53;;;;;;;4.97;2.95;;;;;;;29.68;25.24;99457.69;5068825;27;20371;-49
2021/08/20 08:53:29;;;;;;;4.43;3.40;;;;;;;29.86;25.19;99465.59;5108299;27;1289292;-50
2021/08/20 08:56:19;;;;;;;5.82;3.00;;;;;;;30.02;24.83;99483.19;5068247;28;20372;-51
2021/08/20 08:58:54;;;;;;;5.97;2.95;;;;;;;29.98;25.14;99478.41;5108031;27;1296459;-54
2021/08/20 09:01:33;;;;;;;4.80;3.30;;;;;;;30.07;25.41;99485.97;5068636;28;20131;-54
2021/08/20 09:04:21;;;;;;;6.90;3.10;;;;;;;30.17;24.44;99465.06;5065206;27;1290362;-53
2021/08/20 09:06:57;;;;;;;4.85;3.08;;;;;;;29.86;25.70;99484.91;5068603;28;20705;-53
2021/08/20 09:09:35;;;;;;;7.00;3.30;;;;;;;29.62;26.31;99485.22;5192502;27;20148;-56
2021/08/20 09:12:26;;;;;;;5.97;3.42;;;;;;;29.70;25.98;99496.91;5171028;27;20503;-54
2021/08/20 09:15:02;;;;;;;5.28;2.95;;;;;;;29.30;26.56;99480.41;5108729;27;20377;-53
2021/08/20 09:17:46;;;;;;;4.57;3.13;;;;;;;29.45;27.15;99496.31;5088624;27;20382;-55
2021/08/20 09:20:31;;;;;;;3.88;3.17;;;;;;;29.47;27.30;99485.06;5068649;28;20383;-52
2021/08/20 09:23:23;;;;;;;3.88;3.03;;;;;;;29.44;26.58;99485.56;5068348;28;20376;-55
2021/08/20 09:26:01;;;;;;;6.72;3.17;;;;;;;29.14;27.53;99478.53;5068069;28;20732;-56
2021/08/20 09:28:38;;;;;;;7.32;3.50;;;;;;;29.06;27.35;99485.34;5068819;28;20875;-53
2021/08/20 09:31:15;;;;;;;5.05;2.88;;;;;;;29.04;27.39;99485.59;5068799;28;20382;-55
2021/08/20 09:34:02;;;;;;;5.80;3.38;;;;;;;28.94;26.99;99486.28;5068633;28;20398;-59
2021/08/20 09:36:39;;;;;;;4.78;2.75;;;;;;;28.86;27.44;99496.91;5068557;28;20389;-55
2021/08/20 09:39:25;;;;;;;5.38;3.13;;;;;;;29.07;27.29;99496.09;5089274;28;20379;-53
2021/08/20 09:42:12;;;;;;;3.45;3.05;;;;;;;29.20;26.94;99494.88;5068434;28;20375;-58
2021/08/20 09:44:37;;;;;;;7.18;3.22;;;;;;;28.97;27.98;99490.47;5068604;28;20044;-52
2021/08/20 09:47:14;;;;;;;3.45;3.03;;;;;;;28.70;28.33;99490.31;5068437;28;20555;-52
2021/08/20 09:49:56;;;;;;;4.18;3.45;;;;;;;28.52;27.96;99497.75;5068307;27;20380;-56
2021/08/20 09:52:32;;;;;;;7.50;3.80;;;;;;;28.19;29.18;99491.97;5068286;28;20375;-55
2021/08/20 09:55:09;;;;;;;7.28;3.25;;;;;;;27.93;30.06;99488.75;5068701;28;20368;-53
2021/08/20 09:57:45;;;;;;;7.40;3.17;;;;;;;27.92;29.16;99497.25;5068370;28;20379;-57
2021/08/20 10:00:22;;;;;;;4.35;3.13;;;;;;;28.09;29.23;99500.03;5068719;28;20374;-53
2021/08/20 10:03:01;;;;;;;8.13;3.60;;;;;;;28.34;29.34;99504.34;5088795;27;20734;-53
2021/08/20 10:05:39;;;;;;;4.75;3.35;;;;;;;28.37;29.66;99509.34;5068466;28;20370;-55
2021/08/20 10:08:18;;;;;;;5.60;3.40;;;;;;;28.38;28.89;99490.91;5129449;27;20119;-53
2021/08/20 10:10:57;;;;;;;4.88;3.33;;;;;;;28.35;28.70;99495.00;5088521;27;20581;-54
2021/08/20 10:13:35;;;;;;;6.68;3.50;;;;;;;28.10;29.23;99454.94;5108610;27;20572;-54
2021/08/20 10:16:01;;;;;;;7.38;3.42;;;;;;;28.35;28.94;99497.75;5109120;28;20415;-56
2021/08/20 10:18:30;;;;;;;5.20;3.50;;;;;;;28.49;28.56;99490.84;5109029;28;20020;-55
2021/08/20 10:20:55;;;;;;;5.50;3.95;;;;;;;28.54;28.65;99495.56;5108449;28;20063;-57
2021/08/20 10:23:21;;;;;;;6.38;3.55;;;;;;;28.63;28.95;99483.06;5108971;28;20079;-54
2021/08/20 10:25:47;;;;;;;12.35;4.30;;;;;;;28.72;28.57;99486.22;5107115;28;20036;-54
2021/08/20 10:28:14;;;;;;;5.93;3.88;;;;;;;28.49;29.82;99490.00;5108441;28;20077;-58
2021/08/20 10:30:43;;;;;;;7.68;3.88;;;;;;;28.42;29.07;99487.41;5108210;28;20032;-58
2021/08/20 10:33:09;;;;;;;7.88;4.05;;;;;;;28.22;29.33;99475.00;5108692;28;20399;-53
2021/08/20 10:35:54;;;;;;;6.68;3.88;;;;;;;28.46;29.38;99482.22;5108965;28;20040;-59
2021/08/20 10:38:30;;;;;;;8.23;4.10;;;;;;;28.31;29.00;99483.63;5108714;28;20035;-56
2021/08/20 10:41:14;;;;;;;6.55;3.80;;;;;;;28.29;29.41;99482.25;5108385;28;20386;-54
2021/08/20 10:44:23;;;;;;;13.07;4.03;;;;;;;28.22;29.34;99483.25;5129861;27;20700;-55
2021/08/20 10:47:27;;;;;;;6.35;3.55;;;;;;;28.38;29.54;99471.66;5068604;28;20374;-53
2021/08/20 10:50:20;;;;;;;5.82;3.45;;;;;;;28.37;29.48;99470.81;5067236;28;20364;-59
2021/08/20 10:53:46;;;;;;;6.40;3.65;;;;;;;28.56;29.22;99465.03;5152862;27;20119;-57
2021/08/20 10:56:37;;;;;;;5.60;3.33;;;;;;;28.47;29.90;99457.22;5108687;27;20369;-55
2021/08/20 10:59:38;;;;;;;5.35;3.25;;;;;;;28.54;29.36;99464.47;5068484;28;20373;-55
2021/08/20 11:02:21;;;;;;;5.43;3.67;;;;;;;28.27;29.91;99452.19;5126311;27;20732;-54
2021/08/20 11:05:10;;;;;;;5.05;2.90;;;;;;;28.20;30.52;99452.34;5068425;27;20871;-56
2021/08/20 11:08:01;;;;;;;4.45;2.95;;;;;;;28.15;29.81;99457.78;5067242;28;20380;-57
2021/08/20 11:10:40;;;;;;;5.25;2.92;;;;;;;28.09;29.54;99464.25;5028622;28;20385;-56
2021/08/20 11:13:39;;;;;;;4.15;3.00;;;;;;;27.92;30.49;99458.75;5068300;28;20371;-54
2021/08/20 11:16:38;;;;;;;5.47;2.90;;;;;;;28.12;29.74;99462.94;5108218;27;1293621;-57
2021/08/20 11:19:50;;;;;;;4.47;2.95;;;;;;;28.16;29.79;99459.44;5048237;28;20381;-55
2021/08/20 11:22:34;;;;;;;3.97;2.80;;;;;;;27.86;29.82;99455.06;5048159;28;20478;-53
2021/08/20 11:25:21;;;;;;;6.60;2.90;;;;;;;27.61;29.72;99420.50;5068549;27;20371;-56
2021/08/20 11:28:26;;;;;;;3.60;2.83;;;;;;;27.77;29.72;99420.81;5068041;28;20735;-55
2021/08/20 11:31:15;;;;;;;4.50;2.97;;;;;;;27.87;29.68;99455.91;5067785;28;20765;-54
2021/08/20 11:33:47;;;;;;;3.90;2.80;;;;;;;27.89;29.91;99460.06;5067661;28;20033;-56
2021/08/20 11:36:18;;;;;;;6.20;2.95;;;;;;;27.92;29.59;99456.00;5048485;28;20457;-57
2021/08/20 11:38:49;;;;;;;6.68;3.13;;;;;;;27.84;29.74;99454.47;5047667;28;20477;-56
2021/08/20 11:41:36;;;;;;;5.03;3.13;;;;;;;27.76;29.56;99438.38;5047672;28;20396;-57
2021/08/20 11:44:07;;;;;;;4.55;3.03;;;;;;;27.78;29.36;99466.47;5047011;28;20040;-56
2021/08/20 11:46:44;;;;;;;7.07;3.20;;;;;;;27.84;28.98;99465.47;5047871;28;20033;-58
2021/08/20 11:49:22;;;;;;;5.95;2.95;;;;;;;27.76;29.51;99463.16;5048051;28;20380;-57
2021/08/20 11:51:47;;;;;;;5.03;3.15;;;;;;;27.70;29.81;99455.84;5047653;28;20508;-56
2021/08/20 11:54:15;;;;;;;4.65;2.70;;;;;;;27.73;29.52;99449.84;5051125;28;20036;-52
2021/08/20 11:56:54;;;;;;;4.57;2.95;;;;;;;27.89;29.33;99457.31;5067483;28;20086;-55
2021/08/20 11:59:22;;;;;;;7.53;3.00;;;;;;;27.57;29.58;99446.84;5066298;28;20031;-54
2021/08/20 12:01:53;;;;;;;3.90;3.13;;;;;;;27.64;30.33;99464.00;5067871;28;20058;-54
2021/08/20 12:04:22;;;;;;;4.40;3.08;;;;;;;27.50;30.49;99457.13;5068183;28;20548;-54
2021/08/20 12:06:47;;;;;;;6.03;2.83;;;;;;;27.45;31.25;99457.84;5067383;28;20044;-55
2021/08/20 12:09:22;;;;;;;5.53;3.10;;;;;;;27.47;31.10;99463.94;5059842;28;20026;-56
2021/08/20 12:11:56;;;;;;;3.67;3.13;;;;;;;27.62;30.48;99470.84;5047849;28;20033;-57
2021/08/20 12:14:24;;;;;;;6.60;3.25;;;;;;;27.51;30.19;99461.59;5048028;28;20333;-56
2021/08/20 12:16:52;;;;;;;5.15;3.47;;;;;;;27.54;30.04;99462.97;5047262;28;20421;-55
2021/08/20 12:19:30;;;;;;;6.22;3.17;;;;;;;27.62;29.96;99460.69;5047383;28;20055;-56
2021/08/20 12:22:05;;;;;;;3.70;3.00;;;;;;;27.58;29.92;99454.00;5047532;28;20028;-59
2021/08/20 12:24:40;;;;;;;4.97;3.10;;;;;;;27.48;30.03;99465.59;5046016;28;20029;-56
2021/08/20 12:27:23;;;;;;;4.35;3.17;;;;;;;27.64;30.08;99461.25;5046895;28;20094;-58
2021/08/20 12:29:57;;;;;;;4.97;3.28;;;;;;;27.63;30.55;99462.34;5047392;28;20055;-56